Ever Decent — 9V7952 — position and weather

sailwx.info

Track history (hours):
 
Tides and Currents Weather Stations Pressure Air Temp Water Temp Dewpoint Dewpoint Depression Visibility Wind Speed Wind Dir Waves Ship Positions

Ever Decent

Last reported at 2014-Jul-22 18:00 UTC. Time now 2014-Jul-23 03:41 UTC.
Position N 15°48' W 099°24'.

Length 294 m; draft 11.7 m.

Type: Cargo ship. MMSI: 564904000.

Wind from 300 at 13 knots

Waves 1.0 meters (3 feet), 2 second period

Barometer 1013.0 mb
Air temperature 34.0 ° C
Dewpoint 32.7 ° C
Water temperature 30.0 ° C

Date/timePositionNaut miles runAvg speedWind from/ knotsBaromVisibWave heightAir tempDewpointWater temp
2014-Jul-22 18:00N 15°48' W 099°24'36315.1 300 / 131013.0 1.034.032.730.0
2014-Jul-21 18:00N 13°06' W 093°48'   300 / 91012.0 1.035.033.732.0
2014-Jul-13 18:00N 33°30' W 074°06'5720.3 130 / 101022.0 5.4 3.029.026.326.0
2014-Jul-13 15:12N 34°27' W 074°08'11316.8
2014-Jul-13 08:27N 36°20' W 074°02'1617.4
2014-Jul-13 07:33N 36°36' W 074°02'2019.8
2014-Jul-13 06:33N 36°55' W 074°01'1818.4
2014-Jul-13 05:33N 37°14' W 073°59'1918.5
2014-Jul-13 04:33N 37°32' W 073°59'1717.5
2014-Jul-13 03:33N 37°50' W 073°57'1918.6
2014-Jul-13 02:34N 38°08' W 073°57'1616.5
2014-Jul-13 01:34N 38°25' W 073°56'1514.8
2014-Jul-13 00:33N 38°39' W 073°55'1716.5
2014-Jul-12 23:33N 38°56' W 073°54'1717.0
2014-Jul-12 22:34N 39°13' W 073°53'1716.5
2014-Jul-12 21:33N 39°29' W 073°53'1717.0
2014-Jul-12 20:34N 39°46' W 073°51'1717.0
2014-Jul-12 19:34N 40°03' W 073°50'1716.7
2014-Jul-12 18:33N 40°20' W 073°49'  
Track history (hours):
 
Tides and Currents Weather Stations Pressure Air Temp Water Temp Dewpoint Dewpoint Depression Visibility Wind Speed Wind Dir Waves Ship Positions

Ever Decent

Last reported at 2014-Jul-22 18:00 UTC. Time now 2014-Jul-23 03:41 UTC.
Position N 15°48' W 099°24'.

Length 294 m; draft 11.7 m.

Type: Cargo ship. MMSI: 564904000.

Wind from 300 at 13 knots

Waves 1.0 meters (3 feet), 2 second period

Barometer 1013.0 mb
Air temperature 34.0 ° C
Dewpoint 32.7 ° C
Water temperature 30.0 ° C

Date/timePositionNaut miles runAvg speedWind from/ knotsBaromVisibWave heightAir tempDewpointWater temp
2014-Jul-22 18:00N 15°48' W 099°24'36315.1 300 / 131013.0 1.034.032.730.0
2014-Jul-21 18:00N 13°06' W 093°48'   300 / 91012.0 1.035.033.732.0
2014-Jul-13 18:00N 33°30' W 074°06'5720.3 130 / 101022.0 5.4 3.029.026.326.0
2014-Jul-13 15:12N 34°27' W 074°08'11316.8
2014-Jul-13 08:27N 36°20' W 074°02'1617.4
2014-Jul-13 07:33N 36°36' W 074°02'2019.8
2014-Jul-13 06:33N 36°55' W 074°01'1818.4
2014-Jul-13 05:33N 37°14' W 073°59'1918.5
2014-Jul-13 04:33N 37°32' W 073°59'1717.5
2014-Jul-13 03:33N 37°50' W 073°57'1918.6
2014-Jul-13 02:34N 38°08' W 073°57'1616.5
2014-Jul-13 01:34N 38°25' W 073°56'1514.8
2014-Jul-13 00:33N 38°39' W 073°55'1716.5
2014-Jul-12 23:33N 38°56' W 073°54'1717.0
2014-Jul-12 22:34N 39°13' W 073°53'1716.5
2014-Jul-12 21:33N 39°29' W 073°53'1717.0
2014-Jul-12 20:34N 39°46' W 073°51'1717.0
2014-Jul-12 19:34N 40°03' W 073°50'1716.7
2014-Jul-12 18:33N 40°20' W 073°49'  

Dump ship's entire track history